sensor_id;sensor_type;location;lat;lon;timestamp;P1;durP1;ratioP1;P2;durP2;ratioP2
77876;SDS011;67251;50.844;7.978;2023-10-09T00:01:52;9.10;;;3.40;;
77876;SDS011;67251;50.844;7.978;2023-10-09T00:04:18;8.30;;;3.17;;
77876;SDS011;67251;50.844;7.978;2023-10-09T00:06:45;8.10;;;3.17;;
77876;SDS011;67251;50.844;7.978;2023-10-09T00:09:11;9.52;;;3.15;;
77876;SDS011;67251;50.844;7.978;2023-10-09T00:11:49;8.18;;;3.50;;
77876;SDS011;67251;50.844;7.978;2023-10-09T00:14:21;8.75;;;3.28;;
77876;SDS011;67251;50.844;7.978;2023-10-09T00:16:47;7.88;;;2.63;;
77876;SDS011;67251;50.844;7.978;2023-10-09T00:19:14;8.10;;;2.40;;
77876;SDS011;67251;50.844;7.978;2023-10-09T00:21:42;7.05;;;2.13;;
77876;SDS011;67251;50.844;7.978;2023-10-09T00:26:50;6.55;;;2.20;;
77876;SDS011;67251;50.844;7.978;2023-10-09T00:29:17;5.97;;;2.13;;
77876;SDS011;67251;50.844;7.978;2023-10-09T00:31:52;5.75;;;2.25;;
77876;SDS011;67251;50.844;7.978;2023-10-09T00:34:28;8.27;;;2.83;;
77876;SDS011;67251;50.844;7.978;2023-10-09T00:36:54;5.97;;;2.50;;
77876;SDS011;67251;50.844;7.978;2023-10-09T00:39:22;10.02;;;3.10;;
77876;SDS011;67251;50.844;7.978;2023-10-09T00:42:05;7.97;;;3.03;;
77876;SDS011;67251;50.844;7.978;2023-10-09T00:44:37;5.97;;;2.60;;
77876;SDS011;67251;50.844;7.978;2023-10-09T00:47:10;7.68;;;2.72;;
77876;SDS011;67251;50.844;7.978;2023-10-09T00:49:49;5.25;;;2.42;;
77876;SDS011;67251;50.844;7.978;2023-10-09T00:52:29;7.00;;;2.13;;
77876;SDS011;67251;50.844;7.978;2023-10-09T00:55:09;7.53;;;2.50;;
77876;SDS011;67251;50.844;7.978;2023-10-09T00:57:41;8.90;;;2.58;;
77876;SDS011;67251;50.844;7.978;2023-10-09T01:03:14;8.52;;;2.70;;
77876;SDS011;67251;50.844;7.978;2023-10-09T01:05:41;7.45;;;2.65;;
77876;SDS011;67251;50.844;7.978;2023-10-09T01:08:16;8.40;;;3.00;;
77876;SDS011;67251;50.844;7.978;2023-10-09T01:10:50;8.35;;;2.97;;
77876;SDS011;67251;50.844;7.978;2023-10-09T01:13:18;7.63;;;2.67;;
77876;SDS011;67251;50.844;7.978;2023-10-09T01:15:44;7.15;;;2.33;;
77876;SDS011;67251;50.844;7.978;2023-10-09T01:18:10;8.90;;;2.53;;
77876;SDS011;67251;50.844;7.978;2023-10-09T01:20:37;10.77;;;2.58;;
77876;SDS011;67251;50.844;7.978;2023-10-09T01:23:10;6.38;;;2.22;;
77876;SDS011;67251;50.844;7.978;2023-10-09T01:25:36;6.65;;;2.40;;
77876;SDS011;67251;50.844;7.978;2023-10-09T01:28:09;7.25;;;2.25;;
77876;SDS011;67251;50.844;7.978;2023-10-09T01:30:35;5.95;;;2.30;;
77876;SDS011;67251;50.844;7.978;2023-10-09T01:33:06;6.85;;;2.45;;
77876;SDS011;67251;50.844;7.978;2023-10-09T01:35:40;7.95;;;2.78;;
77876;SDS011;67251;50.844;7.978;2023-10-09T01:38:12;9.90;;;3.03;;
77876;SDS011;67251;50.844;7.978;2023-10-09T01:40:40;10.23;;;3.22;;
77876;SDS011;67251;50.844;7.978;2023-10-09T01:43:05;8.57;;;3.00;;
77876;SDS011;67251;50.844;7.978;2023-10-09T01:49:04;7.70;;;2.60;;
77876;SDS011;67251;50.844;7.978;2023-10-09T01:51:38;9.13;;;2.67;;
77876;SDS011;67251;50.844;7.978;2023-10-09T01:54:03;11.52;;;3.33;;
77876;SDS011;67251;50.844;7.978;2023-10-09T01:56:29;10.23;;;3.28;;
77876;SDS011;67251;50.844;7.978;2023-10-09T01:58:54;9.27;;;2.95;;
77876;SDS011;67251;50.844;7.978;2023-10-09T02:01:22;10.68;;;3.30;;
77876;SDS011;67251;50.844;7.978;2023-10-09T02:03:48;10.43;;;3.30;;
77876;SDS011;67251;50.844;7.978;2023-10-09T02:06:16;8.93;;;3.10;;
77876;SDS011;67251;50.844;7.978;2023-10-09T02:08:52;11.77;;;3.50;;
77876;SDS011;67251;50.844;7.978;2023-10-09T02:11:18;15.93;;;3.65;;
77876;SDS011;67251;50.844;7.978;2023-10-09T02:14:00;13.07;;;3.53;;
77876;SDS011;67251;50.844;7.978;2023-10-09T02:16:26;14.57;;;3.65;;
77876;SDS011;67251;50.844;7.978;2023-10-09T02:18:55;7.55;;;2.88;;
77876;SDS011;67251;50.844;7.978;2023-10-09T02:21:32;9.05;;;2.88;;
77876;SDS011;67251;50.844;7.978;2023-10-09T02:24:05;10.90;;;2.88;;
77876;SDS011;67251;50.844;7.978;2023-10-09T02:26:51;7.53;;;3.03;;
77876;SDS011;67251;50.844;7.978;2023-10-09T02:29:16;6.22;;;2.53;;
77876;SDS011;67251;50.844;7.978;2023-10-09T02:31:45;8.88;;;2.58;;
77876;SDS011;67251;50.844;7.978;2023-10-09T02:34:16;9.13;;;2.70;;
77876;SDS011;67251;50.844;7.978;2023-10-09T02:36:49;7.18;;;2.95;;
77876;SDS011;67251;50.844;7.978;2023-10-09T02:39:19;8.18;;;2.95;;
77876;SDS011;67251;50.844;7.978;2023-10-09T02:41:55;8.27;;;2.67;;
77876;SDS011;67251;50.844;7.978;2023-10-09T02:44:54;7.35;;;2.85;;
77876;SDS011;67251;50.844;7.978;2023-10-09T02:47:20;7.60;;;3.20;;
77876;SDS011;67251;50.844;7.978;2023-10-09T02:49:50;8.68;;;2.80;;
77876;SDS011;67251;50.844;7.978;2023-10-09T02:52:16;7.03;;;3.00;;
77876;SDS011;67251;50.844;7.978;2023-10-09T02:54:47;6.63;;;2.50;;
77876;SDS011;67251;50.844;7.978;2023-10-09T02:57:13;9.02;;;2.72;;
77876;SDS011;67251;50.844;7.978;2023-10-09T02:59:48;6.55;;;2.72;;
77876;SDS011;67251;50.844;7.978;2023-10-09T03:02:16;5.22;;;2.05;;
77876;SDS011;67251;50.844;7.978;2023-10-09T03:04:45;12.05;;;3.28;;
77876;SDS011;67251;50.844;7.978;2023-10-09T03:07:10;7.80;;;2.97;;
77876;SDS011;67251;50.844;7.978;2023-10-09T03:09:38;6.53;;;2.70;;
77876;SDS011;67251;50.844;7.978;2023-10-09T03:12:05;6.07;;;2.72;;
77876;SDS011;67251;50.844;7.978;2023-10-09T03:14:35;11.82;;;3.03;;
77876;SDS011;67251;50.844;7.978;2023-10-09T03:17:03;8.18;;;3.00;;
77876;SDS011;67251;50.844;7.978;2023-10-09T03:19:30;8.38;;;3.60;;
77876;SDS011;67251;50.844;7.978;2023-10-09T03:22:02;7.35;;;2.90;;
77876;SDS011;67251;50.844;7.978;2023-10-09T03:24:35;6.63;;;2.88;;
77876;SDS011;67251;50.844;7.978;2023-10-09T03:27:02;6.30;;;2.53;;
77876;SDS011;67251;50.844;7.978;2023-10-09T03:29:27;6.88;;;2.70;;
77876;SDS011;67251;50.844;7.978;2023-10-09T03:31:53;7.88;;;2.67;;
77876;SDS011;67251;50.844;7.978;2023-10-09T03:34:20;19.08;;;3.35;;
77876;SDS011;67251;50.844;7.978;2023-10-09T03:36:46;19.90;;;3.60;;
77876;SDS011;67251;50.844;7.978;2023-10-09T03:39:13;15.38;;;3.72;;
77876;SDS011;67251;50.844;7.978;2023-10-09T03:41:57;7.78;;;2.95;;
77876;SDS011;67251;50.844;7.978;2023-10-09T03:44:29;6.97;;;2.80;;
77876;SDS011;67251;50.844;7.978;2023-10-09T03:46:55;8.05;;;2.85;;
77876;SDS011;67251;50.844;7.978;2023-10-09T03:49:21;5.80;;;2.50;;
77876;SDS011;67251;50.844;7.978;2023-10-09T03:51:50;9.38;;;3.17;;
77876;SDS011;67251;50.844;7.978;2023-10-09T03:54:16;9.45;;;3.20;;
77876;SDS011;67251;50.844;7.978;2023-10-09T03:56:45;10.25;;;3.28;;
77876;SDS011;67251;50.844;7.978;2023-10-09T04:01:41;11.98;;;3.05;;
77876;SDS011;67251;50.844;7.978;2023-10-09T04:04:07;9.70;;;3.00;;
77876;SDS011;67251;50.844;7.978;2023-10-09T04:06:35;6.88;;;3.33;;
77876;SDS011;67251;50.844;7.978;2023-10-09T04:09:03;9.40;;;3.50;;
77876;SDS011;67251;50.844;7.978;2023-10-09T04:11:45;13.95;;;3.40;;
77876;SDS011;67251;50.844;7.978;2023-10-09T04:14:22;9.05;;;3.53;;
77876;SDS011;67251;50.844;7.978;2023-10-09T04:17:00;10.30;;;3.55;;
77876;SDS011;67251;50.844;7.978;2023-10-09T04:19:52;8.75;;;3.45;;
77876;SDS011;67251;50.844;7.978;2023-10-09T04:22:46;10.20;;;3.55;;
77876;SDS011;67251;50.844;7.978;2023-10-09T04:25:25;11.02;;;4.30;;
77876;SDS011;67251;50.844;7.978;2023-10-09T04:27:55;11.48;;;3.95;;
77876;SDS011;67251;50.844;7.978;2023-10-09T04:30:34;11.15;;;4.03;;
77876;SDS011;67251;50.844;7.978;2023-10-09T04:33:05;13.50;;;3.63;;
77876;SDS011;67251;50.844;7.978;2023-10-09T04:35:36;8.57;;;3.92;;
77876;SDS011;67251;50.844;7.978;2023-10-09T04:38:03;12.10;;;3.75;;
77876;SDS011;67251;50.844;7.978;2023-10-09T04:40:30;10.45;;;3.78;;
77876;SDS011;67251;50.844;7.978;2023-10-09T04:43:16;9.38;;;3.67;;
77876;SDS011;67251;50.844;7.978;2023-10-09T04:45:46;11.27;;;3.67;;
77876;SDS011;67251;50.844;7.978;2023-10-09T04:48:37;12.43;;;3.83;;
77876;SDS011;67251;50.844;7.978;2023-10-09T04:51:10;11.25;;;3.55;;
77876;SDS011;67251;50.844;7.978;2023-10-09T04:53:56;12.32;;;4.30;;
77876;SDS011;67251;50.844;7.978;2023-10-09T04:56:41;9.15;;;3.70;;
77876;SDS011;67251;50.844;7.978;2023-10-09T04:59:33;9.35;;;3.33;;
77876;SDS011;67251;50.844;7.978;2023-10-09T05:02:10;12.95;;;3.92;;
77876;SDS011;67251;50.844;7.978;2023-10-09T05:04:44;12.77;;;4.03;;
77876;SDS011;67251;50.844;7.978;2023-10-09T05:07:12;13.23;;;4.40;;
77876;SDS011;67251;50.844;7.978;2023-10-09T05:09:56;12.23;;;4.28;;
77876;SDS011;67251;50.844;7.978;2023-10-09T05:12:32;9.00;;;4.00;;
77876;SDS011;67251;50.844;7.978;2023-10-09T05:14:57;10.02;;;3.95;;
77876;SDS011;67251;50.844;7.978;2023-10-09T05:17:34;10.05;;;3.88;;
77876;SDS011;67251;50.844;7.978;2023-10-09T05:20:01;11.00;;;4.13;;
77876;SDS011;67251;50.844;7.978;2023-10-09T05:22:45;12.77;;;4.90;;
77876;SDS011;67251;50.844;7.978;2023-10-09T05:25:22;11.07;;;4.30;;
77876;SDS011;67251;50.844;7.978;2023-10-09T05:28:04;8.68;;;3.40;;
77876;SDS011;67251;50.844;7.978;2023-10-09T05:30:49;7.25;;;3.20;;
77876;SDS011;67251;50.844;7.978;2023-10-09T05:33:20;7.43;;;3.40;;
77876;SDS011;67251;50.844;7.978;2023-10-09T05:35:54;9.52;;;3.40;;
77876;SDS011;67251;50.844;7.978;2023-10-09T05:38:40;8.10;;;3.20;;
77876;SDS011;67251;50.844;7.978;2023-10-09T05:41:12;12.85;;;3.72;;
77876;SDS011;67251;50.844;7.978;2023-10-09T05:43:56;11.70;;;4.65;;
77876;SDS011;67251;50.844;7.978;2023-10-09T05:46:40;11.60;;;4.18;;
77876;SDS011;67251;50.844;7.978;2023-10-09T05:49:26;8.98;;;3.70;;
77876;SDS011;67251;50.844;7.978;2023-10-09T05:52:10;10.40;;;4.50;;
77876;SDS011;67251;50.844;7.978;2023-10-09T05:54:54;10.63;;;4.00;;
77876;SDS011;67251;50.844;7.978;2023-10-09T05:57:39;12.80;;;4.68;;
77876;SDS011;67251;50.844;7.978;2023-10-09T06:00:20;12.93;;;4.72;;
77876;SDS011;67251;50.844;7.978;2023-10-09T06:03:04;10.90;;;4.47;;
77876;SDS011;67251;50.844;7.978;2023-10-09T06:05:56;9.40;;;3.95;;
77876;SDS011;67251;50.844;7.978;2023-10-09T06:08:25;11.88;;;4.85;;
77876;SDS011;67251;50.844;7.978;2023-10-09T06:10:55;10.30;;;4.38;;
77876;SDS011;67251;50.844;7.978;2023-10-09T06:13:39;10.98;;;4.20;;
77876;SDS011;67251;50.844;7.978;2023-10-09T06:16:10;10.35;;;4.55;;
77876;SDS011;67251;50.844;7.978;2023-10-09T06:18:56;13.15;;;4.22;;
77876;SDS011;67251;50.844;7.978;2023-10-09T06:21:37;10.10;;;3.53;;
77876;SDS011;67251;50.844;7.978;2023-10-09T06:24:22;11.70;;;3.95;;
77876;SDS011;67251;50.844;7.978;2023-10-09T06:26:48;11.07;;;3.70;;
77876;SDS011;67251;50.844;7.978;2023-10-09T06:29:24;8.93;;;4.05;;
77876;SDS011;67251;50.844;7.978;2023-10-09T06:32:05;11.75;;;4.25;;
77876;SDS011;67251;50.844;7.978;2023-10-09T06:34:52;11.98;;;4.30;;
77876;SDS011;67251;50.844;7.978;2023-10-09T06:37:39;9.20;;;3.90;;
77876;SDS011;67251;50.844;7.978;2023-10-09T06:40:25;8.77;;;4.05;;
77876;SDS011;67251;50.844;7.978;2023-10-09T06:43:09;11.95;;;3.83;;
77876;SDS011;67251;50.844;7.978;2023-10-09T06:45:40;9.80;;;4.20;;
77876;SDS011;67251;50.844;7.978;2023-10-09T06:48:19;8.02;;;3.78;;
77876;SDS011;67251;50.844;7.978;2023-10-09T06:51:07;15.10;;;3.60;;
77876;SDS011;67251;50.844;7.978;2023-10-09T06:53:50;9.77;;;3.75;;
77876;SDS011;67251;50.844;7.978;2023-10-09T06:56:21;11.07;;;4.30;;
77876;SDS011;67251;50.844;7.978;2023-10-09T06:58:59;8.55;;;3.58;;
77876;SDS011;67251;50.844;7.978;2023-10-09T07:01:49;8.82;;;4.15;;
77876;SDS011;67251;50.844;7.978;2023-10-09T07:04:34;12.00;;;3.92;;
77876;SDS011;67251;50.844;7.978;2023-10-09T07:07:00;9.70;;;3.72;;
77876;SDS011;67251;50.844;7.978;2023-10-09T07:09:32;6.75;;;2.42;;
77876;SDS011;67251;50.844;7.978;2023-10-09T07:12:08;9.07;;;3.22;;
77876;SDS011;67251;50.844;7.978;2023-10-09T07:14:51;13.10;;;4.30;;
77876;SDS011;67251;50.844;7.978;2023-10-09T07:17:16;11.38;;;4.47;;
77876;SDS011;67251;50.844;7.978;2023-10-09T07:19:48;11.48;;;3.83;;
77876;SDS011;67251;50.844;7.978;2023-10-09T07:22:14;13.10;;;4.47;;
77876;SDS011;67251;50.844;7.978;2023-10-09T07:24:49;10.00;;;4.50;;
77876;SDS011;67251;50.844;7.978;2023-10-09T07:27:29;11.77;;;4.00;;
77876;SDS011;67251;50.844;7.978;2023-10-09T07:30:17;9.85;;;4.20;;
77876;SDS011;67251;50.844;7.978;2023-10-09T07:33:04;10.43;;;4.13;;
77876;SDS011;67251;50.844;7.978;2023-10-09T07:35:33;10.50;;;4.20;;
77876;SDS011;67251;50.844;7.978;2023-10-09T07:38:07;10.68;;;4.53;;
77876;SDS011;67251;50.844;7.978;2023-10-09T07:40:34;10.85;;;4.35;;
77876;SDS011;67251;50.844;7.978;2023-10-09T07:45:51;12.13;;;4.05;;
77876;SDS011;67251;50.844;7.978;2023-10-09T07:48:23;10.63;;;5.13;;
77876;SDS011;67251;50.844;7.978;2023-10-09T07:51:03;9.95;;;4.63;;
77876;SDS011;67251;50.844;7.978;2023-10-09T07:53:30;10.10;;;4.03;;
77876;SDS011;67251;50.844;7.978;2023-10-09T07:56:08;9.05;;;3.80;;
77876;SDS011;67251;50.844;7.978;2023-10-09T07:58:33;12.80;;;4.65;;
77876;SDS011;67251;50.844;7.978;2023-10-09T08:01:11;8.40;;;3.92;;
77876;SDS011;67251;50.844;7.978;2023-10-09T08:03:56;7.82;;;4.05;;
77876;SDS011;67251;50.844;7.978;2023-10-09T08:06:30;10.20;;;3.88;;
77876;SDS011;67251;50.844;7.978;2023-10-09T08:09:05;9.07;;;3.95;;
77876;SDS011;67251;50.844;7.978;2023-10-09T08:11:40;9.43;;;4.00;;
77876;SDS011;67251;50.844;7.978;2023-10-09T08:14:13;11.10;;;4.28;;
77876;SDS011;67251;50.844;7.978;2023-10-09T08:17:05;8.70;;;4.00;;
77876;SDS011;67251;50.844;7.978;2023-10-09T08:19:39;9.40;;;3.95;;
77876;SDS011;67251;50.844;7.978;2023-10-09T08:22:30;7.97;;;3.65;;
77876;SDS011;67251;50.844;7.978;2023-10-09T08:24:56;10.23;;;3.97;;
77876;SDS011;67251;50.844;7.978;2023-10-09T08:30:03;10.38;;;3.70;;
77876;SDS011;67251;50.844;7.978;2023-10-09T08:32:46;6.97;;;3.10;;
77876;SDS011;67251;50.844;7.978;2023-10-09T08:37:59;9.30;;;3.80;;
77876;SDS011;67251;50.844;7.978;2023-10-09T08:40:29;11.05;;;4.18;;
77876;SDS011;67251;50.844;7.978;2023-10-09T08:42:58;9.02;;;3.78;;
77876;SDS011;67251;50.844;7.978;2023-10-09T08:45:34;9.93;;;3.47;;
77876;SDS011;67251;50.844;7.978;2023-10-09T08:48:04;12.48;;;4.45;;
77876;SDS011;67251;50.844;7.978;2023-10-09T08:50:31;9.48;;;4.35;;
77876;SDS011;67251;50.844;7.978;2023-10-09T08:52:59;11.30;;;4.95;;
77876;SDS011;67251;50.844;7.978;2023-10-09T08:55:26;8.73;;;3.85;;
77876;SDS011;67251;50.844;7.978;2023-10-09T08:57:52;8.85;;;3.97;;
77876;SDS011;67251;50.844;7.978;2023-10-09T09:00:17;9.23;;;4.68;;
77876;SDS011;67251;50.844;7.978;2023-10-09T09:02:50;8.30;;;3.58;;
77876;SDS011;67251;50.844;7.978;2023-10-09T09:05:19;11.23;;;3.92;;
77876;SDS011;67251;50.844;7.978;2023-10-09T09:07:45;7.82;;;3.85;;
77876;SDS011;67251;50.844;7.978;2023-10-09T09:10:11;11.13;;;4.00;;
77876;SDS011;67251;50.844;7.978;2023-10-09T09:12:43;11.52;;;4.30;;
77876;SDS011;67251;50.844;7.978;2023-10-09T09:15:15;9.27;;;3.55;;
77876;SDS011;67251;50.844;7.978;2023-10-09T09:17:51;9.07;;;4.07;;
77876;SDS011;67251;50.844;7.978;2023-10-09T09:20:31;8.90;;;3.65;;
77876;SDS011;67251;50.844;7.978;2023-10-09T09:23:05;8.48;;;3.75;;
77876;SDS011;67251;50.844;7.978;2023-10-09T09:28:13;10.43;;;3.78;;
77876;SDS011;67251;50.844;7.978;2023-10-09T09:30:51;10.02;;;3.40;;
77876;SDS011;67251;50.844;7.978;2023-10-09T09:33:32;10.18;;;3.75;;
77876;SDS011;67251;50.844;7.978;2023-10-09T09:36:08;9.77;;;3.67;;
77876;SDS011;67251;50.844;7.978;2023-10-09T09:38:37;11.32;;;3.70;;
77876;SDS011;67251;50.844;7.978;2023-10-09T09:41:29;8.65;;;3.72;;
77876;SDS011;67251;50.844;7.978;2023-10-09T09:43:59;8.60;;;3.58;;
77876;SDS011;67251;50.844;7.978;2023-10-09T09:46:33;8.23;;;3.17;;
77876;SDS011;67251;50.844;7.978;2023-10-09T09:49:06;8.52;;;3.50;;
77876;SDS011;67251;50.844;7.978;2023-10-09T09:51:41;8.80;;;3.67;;
77876;SDS011;67251;50.844;7.978;2023-10-09T09:54:11;9.02;;;3.42;;
77876;SDS011;67251;50.844;7.978;2023-10-09T09:56:40;7.97;;;3.42;;
77876;SDS011;67251;50.844;7.978;2023-10-09T09:59:17;7.93;;;3.20;;
77876;SDS011;67251;50.844;7.978;2023-10-09T10:01:52;10.45;;;4.22;;
77876;SDS011;67251;50.844;7.978;2023-10-09T10:04:31;7.60;;;3.83;;
77876;SDS011;67251;50.844;7.978;2023-10-09T10:09:34;9.40;;;3.33;;
77876;SDS011;67251;50.844;7.978;2023-10-09T10:12:06;7.68;;;3.47;;
77876;SDS011;67251;50.844;7.978;2023-10-09T10:14:51;7.70;;;3.60;;
77876;SDS011;67251;50.844;7.978;2023-10-09T10:17:24;8.10;;;3.40;;
77876;SDS011;67251;50.844;7.978;2023-10-09T10:22:44;8.05;;;3.28;;
77876;SDS011;67251;50.844;7.978;2023-10-09T10:28:16;10.38;;;3.97;;
77876;SDS011;67251;50.844;7.978;2023-10-09T10:31:03;7.53;;;3.70;;
77876;SDS011;67251;50.844;7.978;2023-10-09T10:34:02;9.07;;;4.00;;
77876;SDS011;67251;50.844;7.978;2023-10-09T10:36:18;8.60;;;3.78;;
77876;SDS011;67251;50.844;7.978;2023-10-09T10:38:58;7.57;;;3.60;;
77876;SDS011;67251;50.844;7.978;2023-10-09T10:41:29;9.77;;;3.83;;
77876;SDS011;67251;50.844;7.978;2023-10-09T10:44:01;8.43;;;3.65;;
77876;SDS011;67251;50.844;7.978;2023-10-09T10:46:46;8.73;;;4.05;;
77876;SDS011;67251;50.844;7.978;2023-10-09T10:49:17;9.82;;;3.53;;
77876;SDS011;67251;50.844;7.978;2023-10-09T10:51:47;8.55;;;3.67;;
77876;SDS011;67251;50.844;7.978;2023-10-09T10:57:29;10.38;;;3.65;;
77876;SDS011;67251;50.844;7.978;2023-10-09T10:59:55;10.07;;;3.97;;
77876;SDS011;67251;50.844;7.978;2023-10-09T11:02:38;8.93;;;4.03;;
77876;SDS011;67251;50.844;7.978;2023-10-09T11:05:05;10.45;;;3.78;;
77876;SDS011;67251;50.844;7.978;2023-10-09T11:07:49;7.18;;;3.60;;
77876;SDS011;67251;50.844;7.978;2023-10-09T11:10:21;10.77;;;3.95;;
77876;SDS011;67251;50.844;7.978;2023-10-09T11:12:52;9.63;;;3.95;;
77876;SDS011;67251;50.844;7.978;2023-10-09T11:15:30;8.32;;;3.83;;
77876;SDS011;67251;50.844;7.978;2023-10-09T11:18:09;9.15;;;4.00;;
77876;SDS011;67251;50.844;7.978;2023-10-09T11:20:55;10.52;;;3.83;;
77876;SDS011;67251;50.844;7.978;2023-10-09T11:23:42;7.82;;;3.75;;
77876;SDS011;67251;50.844;7.978;2023-10-09T11:26:17;8.15;;;3.53;;
77876;SDS011;67251;50.844;7.978;2023-10-09T11:29:06;7.97;;;3.58;;
77876;SDS011;67251;50.844;7.978;2023-10-09T11:34:25;9.95;;;3.67;;
77876;SDS011;67251;50.844;7.978;2023-10-09T11:36:57;9.75;;;3.33;;
77876;SDS011;67251;50.844;7.978;2023-10-09T11:39:40;7.10;;;3.28;;
77876;SDS011;67251;50.844;7.978;2023-10-09T11:42:17;10.77;;;3.40;;
77876;SDS011;67251;50.844;7.978;2023-10-09T11:48:15;10.68;;;3.47;;
77876;SDS011;67251;50.844;7.978;2023-10-09T11:50:46;9.10;;;3.78;;
77876;SDS011;67251;50.844;7.978;2023-10-09T11:53:27;8.75;;;3.45;;
77876;SDS011;67251;50.844;7.978;2023-10-09T11:55:53;8.50;;;3.22;;
77876;SDS011;67251;50.844;7.978;2023-10-09T11:58:18;10.93;;;3.13;;
77876;SDS011;67251;50.844;7.978;2023-10-09T12:03:28;7.43;;;3.25;;
77876;SDS011;67251;50.844;7.978;2023-10-09T12:05:55;7.57;;;2.95;;
77876;SDS011;67251;50.844;7.978;2023-10-09T12:08:21;8.32;;;2.72;;
77876;SDS011;67251;50.844;7.978;2023-10-09T12:10:52;8.77;;;3.42;;
77876;SDS011;67251;50.844;7.978;2023-10-09T12:13:21;7.10;;;2.85;;
77876;SDS011;67251;50.844;7.978;2023-10-09T12:15:48;6.97;;;3.13;;
77876;SDS011;67251;50.844;7.978;2023-10-09T12:18:17;8.30;;;3.20;;
77876;SDS011;67251;50.844;7.978;2023-10-09T12:20:44;7.90;;;3.20;;
77876;SDS011;67251;50.844;7.978;2023-10-09T12:23:16;6.88;;;3.40;;
77876;SDS011;67251;50.844;7.978;2023-10-09T12:25:42;8.00;;;2.67;;
77876;SDS011;67251;50.844;7.978;2023-10-09T12:28:10;8.27;;;2.88;;
77876;SDS011;67251;50.844;7.978;2023-10-09T12:30:37;9.27;;;3.60;;
77876;SDS011;67251;50.844;7.978;2023-10-09T12:33:06;7.88;;;2.92;;
77876;SDS011;67251;50.844;7.978;2023-10-09T12:35:37;7.90;;;3.20;;
77876;SDS011;67251;50.844;7.978;2023-10-09T12:38:03;7.15;;;2.60;;
77876;SDS011;67251;50.844;7.978;2023-10-09T12:40:33;8.43;;;2.78;;
77876;SDS011;67251;50.844;7.978;2023-10-09T12:42:59;8.20;;;2.75;;
77876;SDS011;67251;50.844;7.978;2023-10-09T12:45:25;10.02;;;3.08;;
77876;SDS011;67251;50.844;7.978;2023-10-09T12:47:54;7.28;;;2.95;;
77876;SDS011;67251;50.844;7.978;2023-10-09T12:50:27;8.02;;;2.97;;
77876;SDS011;67251;50.844;7.978;2023-10-09T12:52:56;6.38;;;3.03;;
77876;SDS011;67251;50.844;7.978;2023-10-09T12:55:22;7.80;;;3.65;;
77876;SDS011;67251;50.844;7.978;2023-10-09T12:57:56;8.40;;;3.15;;
77876;SDS011;67251;50.844;7.978;2023-10-09T13:00:25;6.88;;;2.88;;
77876;SDS011;67251;50.844;7.978;2023-10-09T13:02:51;10.45;;;3.22;;
77876;SDS011;67251;50.844;7.978;2023-10-09T13:05:17;7.88;;;2.70;;
77876;SDS011;67251;50.844;7.978;2023-10-09T13:07:51;5.75;;;2.45;;
77876;SDS011;67251;50.844;7.978;2023-10-09T13:10:18;7.60;;;3.08;;
77876;SDS011;67251;50.844;7.978;2023-10-09T13:12:50;7.32;;;3.13;;
77876;SDS011;67251;50.844;7.978;2023-10-09T13:15:21;6.65;;;2.85;;
77876;SDS011;67251;50.844;7.978;2023-10-09T13:17:46;8.30;;;2.83;;
77876;SDS011;67251;50.844;7.978;2023-10-09T13:20:12;7.15;;;2.80;;
77876;SDS011;67251;50.844;7.978;2023-10-09T13:22:47;8.00;;;2.90;;
77876;SDS011;67251;50.844;7.978;2023-10-09T13:25:13;5.93;;;2.42;;
77876;SDS011;67251;50.844;7.978;2023-10-09T13:27:42;7.80;;;3.05;;
77876;SDS011;67251;50.844;7.978;2023-10-09T13:30:14;8.40;;;3.28;;
77876;SDS011;67251;50.844;7.978;2023-10-09T13:32:47;7.97;;;3.00;;
77876;SDS011;67251;50.844;7.978;2023-10-09T13:35:18;8.98;;;3.28;;
77876;SDS011;67251;50.844;7.978;2023-10-09T13:40:19;8.85;;;3.50;;
77876;SDS011;67251;50.844;7.978;2023-10-09T13:42:52;7.53;;;3.00;;
77876;SDS011;67251;50.844;7.978;2023-10-09T13:45:23;5.85;;;3.15;;
77876;SDS011;67251;50.844;7.978;2023-10-09T13:47:53;7.55;;;3.15;;
77876;SDS011;67251;50.844;7.978;2023-10-09T13:50:24;7.20;;;3.08;;
77876;SDS011;67251;50.844;7.978;2023-10-09T13:52:54;7.38;;;3.10;;
77876;SDS011;67251;50.844;7.978;2023-10-09T13:55:21;9.02;;;3.53;;
77876;SDS011;67251;50.844;7.978;2023-10-09T13:57:46;8.82;;;3.63;;
77876;SDS011;67251;50.844;7.978;2023-10-09T14:00:13;7.25;;;3.10;;
77876;SDS011;67251;50.844;7.978;2023-10-09T14:02:44;8.32;;;3.55;;
77876;SDS011;67251;50.844;7.978;2023-10-09T14:05:11;10.05;;;3.53;;
77876;SDS011;67251;50.844;7.978;2023-10-09T14:10:59;9.02;;;4.20;;
77876;SDS011;67251;50.844;7.978;2023-10-09T14:13:25;8.95;;;3.03;;
77876;SDS011;67251;50.844;7.978;2023-10-09T14:15:53;7.70;;;3.30;;
77876;SDS011;67251;50.844;7.978;2023-10-09T14:18:20;7.82;;;3.28;;
77876;SDS011;67251;50.844;7.978;2023-10-09T14:20:46;10.00;;;3.50;;
77876;SDS011;67251;50.844;7.978;2023-10-09T14:23:12;9.32;;;3.53;;
77876;SDS011;67251;50.844;7.978;2023-10-09T14:25:45;9.07;;;3.30;;
77876;SDS011;67251;50.844;7.978;2023-10-09T14:28:14;7.43;;;3.60;;
77876;SDS011;67251;50.844;7.978;2023-10-09T14:30:43;8.45;;;3.28;;
77876;SDS011;67251;50.844;7.978;2023-10-09T14:33:12;9.15;;;3.45;;
77876;SDS011;67251;50.844;7.978;2023-10-09T14:35:41;8.70;;;3.13;;
77876;SDS011;67251;50.844;7.978;2023-10-09T14:38:07;9.15;;;3.22;;
77876;SDS011;67251;50.844;7.978;2023-10-09T14:40:41;9.50;;;3.20;;
77876;SDS011;67251;50.844;7.978;2023-10-09T14:43:07;7.25;;;3.30;;
77876;SDS011;67251;50.844;7.978;2023-10-09T14:45:36;8.40;;;3.05;;
77876;SDS011;67251;50.844;7.978;2023-10-09T14:48:03;7.43;;;3.42;;
77876;SDS011;67251;50.844;7.978;2023-10-09T14:50:28;11.70;;;3.55;;
77876;SDS011;67251;50.844;7.978;2023-10-09T14:52:54;9.50;;;3.17;;
77876;SDS011;67251;50.844;7.978;2023-10-09T14:55:19;6.75;;;2.83;;
77876;SDS011;67251;50.844;7.978;2023-10-09T14:57:53;8.20;;;3.45;;
77876;SDS011;67251;50.844;7.978;2023-10-09T15:00:20;9.25;;;3.40;;
77876;SDS011;67251;50.844;7.978;2023-10-09T15:02:48;7.40;;;3.25;;
77876;SDS011;67251;50.844;7.978;2023-10-09T15:05:17;9.68;;;3.20;;
77876;SDS011;67251;50.844;7.978;2023-10-09T15:07:42;9.07;;;3.35;;
77876;SDS011;67251;50.844;7.978;2023-10-09T15:10:08;7.65;;;3.28;;
77876;SDS011;67251;50.844;7.978;2023-10-09T15:12:42;9.13;;;3.05;;
77876;SDS011;67251;50.844;7.978;2023-10-09T15:15:13;7.70;;;3.70;;
77876;SDS011;67251;50.844;7.978;2023-10-09T15:17:42;9.73;;;4.35;;
77876;SDS011;67251;50.844;7.978;2023-10-09T15:20:13;8.45;;;3.58;;
77876;SDS011;67251;50.844;7.978;2023-10-09T15:22:40;10.13;;;3.90;;
77876;SDS011;67251;50.844;7.978;2023-10-09T15:25:06;9.73;;;3.95;;
77876;SDS011;67251;50.844;7.978;2023-10-09T15:27:32;8.50;;;3.83;;
77876;SDS011;67251;50.844;7.978;2023-10-09T15:29:58;8.68;;;3.75;;
77876;SDS011;67251;50.844;7.978;2023-10-09T15:32:23;10.63;;;3.88;;
77876;SDS011;67251;50.844;7.978;2023-10-09T15:34:54;9.50;;;3.53;;
77876;SDS011;67251;50.844;7.978;2023-10-09T15:37:21;11.05;;;4.40;;
77876;SDS011;67251;50.844;7.978;2023-10-09T15:39:47;12.43;;;3.95;;
77876;SDS011;67251;50.844;7.978;2023-10-09T15:42:14;9.25;;;3.67;;
77876;SDS011;67251;50.844;7.978;2023-10-09T15:44:41;11.52;;;4.72;;
77876;SDS011;67251;50.844;7.978;2023-10-09T15:47:07;9.15;;;4.10;;
77876;SDS011;67251;50.844;7.978;2023-10-09T15:49:33;13.35;;;4.60;;
77876;SDS011;67251;50.844;7.978;2023-10-09T15:51:59;11.02;;;4.25;;
77876;SDS011;67251;50.844;7.978;2023-10-09T15:56:55;9.35;;;4.10;;
77876;SDS011;67251;50.844;7.978;2023-10-09T15:59:22;9.32;;;4.45;;
77876;SDS011;67251;50.844;7.978;2023-10-09T16:01:49;9.50;;;4.45;;
77876;SDS011;67251;50.844;7.978;2023-10-09T16:04:16;9.45;;;4.00;;
77876;SDS011;67251;50.844;7.978;2023-10-09T16:06:41;10.05;;;4.63;;